createdAt,value
2023-03-07T00:00:20.256Z,13
2023-03-07T00:05:17.559Z,16
2023-03-07T00:10:17.517Z,18
2023-03-07T00:15:20.697Z,21
2023-03-07T00:20:20.298Z,24
2023-03-07T00:25:20.267Z,22
2023-03-07T00:30:20.614Z,29
2023-03-07T00:35:21.792Z,23
2023-03-07T00:40:20.875Z,21
2023-03-07T00:45:20.340Z,21
2023-03-07T00:50:20.263Z,16
2023-03-07T00:55:20.827Z,23
2023-03-07T01:00:17.703Z,12
2023-03-07T01:05:17.302Z,14
2023-03-07T01:10:20.402Z,17
2023-03-07T01:15:20.370Z,19
2023-03-07T01:20:20.831Z,15
2023-03-07T01:25:22.010Z,13
2023-03-07T01:30:20.446Z,12
2023-03-07T01:35:20.408Z,16
2023-03-07T01:40:20.424Z,18
2023-03-07T01:45:20.931Z,18
2023-03-07T01:50:20.827Z,19
2023-03-07T01:55:17.326Z,20
2023-03-07T02:00:17.736Z,21
2023-03-07T02:05:20.922Z,19
2023-03-07T02:10:20.819Z,22
2023-03-07T02:15:20.504Z,17
2023-03-07T02:20:20.420Z,14
2023-03-07T02:25:20.543Z,18
2023-03-07T02:30:21.129Z,11
2023-03-07T02:35:20.885Z,10
2023-03-07T02:40:20.573Z,11
2023-03-07T02:45:17.412Z,7
2023-03-07T02:50:17.473Z,11
2023-03-07T02:55:20.853Z,20
2023-03-07T03:00:20.169Z,14
2023-03-07T03:05:16.580Z,15
2023-03-07T03:10:16.470Z,16
2023-03-07T03:15:20.001Z,17
2023-03-07T03:20:16.618Z,18
2023-03-07T03:25:19.950Z,16
2023-03-07T03:30:19.647Z,14
2023-03-07T03:35:19.673Z,10
2023-03-07T03:40:20.369Z,7
2023-03-07T03:45:20.149Z,11
2023-03-07T03:50:19.952Z,13
2023-03-07T03:55:19.760Z,12
2023-03-07T04:00:16.518Z,9
2023-03-07T04:05:17.116Z,5
2023-03-07T04:10:20.217Z,5
2023-03-07T04:15:19.740Z,10
2023-03-07T04:20:19.796Z,11
2023-03-07T04:25:19.762Z,15
2023-03-07T04:30:21.614Z,6
2023-03-07T04:35:20.070Z,19
2023-03-07T04:40:19.740Z,12
2023-03-07T04:45:19.770Z,12
2023-03-07T04:50:16.697Z,12
2023-03-07T04:55:16.709Z,16
2023-03-07T05:00:19.306Z,7
2023-03-07T05:05:15.914Z,4
2023-03-07T05:10:16.030Z,5
2023-03-07T05:15:19.128Z,3
2023-03-07T05:20:19.276Z,2
2023-03-07T05:25:19.106Z,1
2023-03-07T05:30:19.160Z,6
2023-03-07T05:35:19.114Z,6
2023-03-07T05:40:19.224Z,6
2023-03-07T05:45:19.200Z,9
2023-03-07T05:50:19.232Z,6
2023-03-07T05:55:19.200Z,5
2023-03-07T06:00:16.173Z,6
2023-03-07T06:05:16.075Z,13
2023-03-07T06:10:19.392Z,6
2023-03-07T06:15:19.220Z,7
2023-03-07T06:20:19.260Z,6
2023-03-07T06:25:19.226Z,7
2023-03-07T06:30:19.305Z,7
2023-03-07T06:35:19.261Z,7
2023-03-07T06:40:19.250Z,7
2023-03-07T06:45:19.277Z,9
2023-03-07T06:50:26.613Z,9
2023-03-07T06:55:16.226Z,8
2023-03-07T07:00:19.342Z,7
2023-03-07T07:05:19.429Z,6
2023-03-07T07:10:19.416Z,7
2023-03-07T07:15:19.401Z,9
2023-03-07T07:20:19.367Z,9
2023-03-07T07:25:19.318Z,8
2023-03-07T07:30:19.362Z,8
2023-03-07T07:35:19.513Z,10
2023-03-07T07:40:19.507Z,10
2023-03-07T07:45:16.388Z,9
2023-03-07T07:50:16.364Z,7
2023-03-07T07:55:19.520Z,7
2023-03-07T08:00:19.665Z,5
2023-03-07T08:05:19.467Z,6
2023-03-07T08:10:19.345Z,8
2023-03-07T08:15:19.661Z,8
2023-03-07T08:20:19.609Z,7
2023-03-07T08:25:19.552Z,11
2023-03-07T08:30:19.500Z,7
2023-03-07T08:35:19.601Z,6
2023-03-07T08:40:16.478Z,7
2023-03-07T08:45:16.426Z,8
2023-03-07T08:50:19.645Z,11
2023-03-07T08:55:19.628Z,9
2023-03-07T09:00:19.603Z,7
2023-03-07T09:05:19.690Z,9
2023-03-07T09:10:19.543Z,8
2023-03-07T09:15:19.689Z,10
2023-03-07T09:20:19.676Z,10
2023-03-07T09:25:19.669Z,9
2023-03-07T09:30:19.646Z,9
2023-03-07T09:35:16.548Z,10
2023-03-07T09:40:16.751Z,9
2023-03-07T09:45:19.705Z,9
2023-03-07T09:50:19.751Z,11
2023-03-07T09:55:19.796Z,12
2023-03-07T10:00:19.791Z,17
2023-03-07T10:05:19.780Z,18
2023-03-07T10:10:19.950Z,15
2023-03-07T10:15:20.076Z,11
2023-03-07T10:20:19.834Z,11
2023-03-07T10:25:16.787Z,11
2023-03-07T10:30:16.879Z,13
2023-03-07T10:35:19.811Z,9
2023-03-07T10:40:19.974Z,10
2023-03-07T10:45:19.897Z,9
2023-03-07T10:50:19.985Z,9
2023-03-07T10:55:20.458Z,10
2023-03-07T11:00:19.922Z,10
2023-03-07T11:05:19.902Z,10
2023-03-07T11:10:19.917Z,9
2023-03-07T11:15:19.924Z,11
2023-03-07T11:20:16.853Z,10
2023-03-07T11:25:16.824Z,8
2023-03-07T11:30:19.981Z,11
2023-03-07T11:35:19.961Z,15
2023-03-07T11:40:19.985Z,11
2023-03-07T11:45:19.976Z,12
2023-03-07T11:50:20.033Z,11
2023-03-07T11:55:19.962Z,14
2023-03-07T12:00:20.204Z,9
2023-03-07T12:05:20.115Z,11
2023-03-07T12:10:20.091Z,13
2023-03-07T12:15:16.908Z,12
2023-03-07T12:20:17.090Z,11
2023-03-07T12:25:20.045Z,16
2023-03-07T12:30:20.209Z,13
2023-03-07T12:35:20.231Z,15
2023-03-07T12:40:20.174Z,11
2023-03-07T12:45:20.230Z,14
2023-03-07T12:50:20.109Z,13
2023-03-07T12:55:20.192Z,16
2023-03-07T13:00:20.296Z,13
2023-03-07T13:05:17.113Z,20
2023-03-07T13:10:17.078Z,16
2023-03-07T13:15:20.252Z,14
2023-03-07T13:20:20.266Z,21
2023-03-07T13:25:20.227Z,21
2023-03-07T13:30:20.280Z,15
2023-03-07T13:35:20.277Z,19
2023-03-07T13:40:20.263Z,16
2023-03-07T13:45:20.269Z,9
2023-03-07T13:50:20.270Z,15
2023-03-07T13:55:20.341Z,16
2023-03-07T14:00:17.164Z,18
2023-03-07T14:05:17.217Z,22
2023-03-07T14:10:22.808Z,17
2023-03-07T14:15:20.526Z,16
2023-03-07T14:20:20.279Z,13
2023-03-07T14:25:20.587Z,17
2023-03-07T14:30:20.317Z,14
2023-03-07T14:35:20.368Z,21
2023-03-07T14:40:20.422Z,19
2023-03-07T14:45:20.406Z,14
2023-03-07T14:50:20.425Z,15
2023-03-07T14:55:17.292Z,18
2023-03-07T15:00:20.705Z,17
2023-03-07T15:05:20.400Z,17
2023-03-07T15:10:20.466Z,13
2023-03-07T15:15:20.460Z,14
2023-03-07T15:20:20.513Z,13
2023-03-07T15:25:20.498Z,11
2023-03-07T15:30:20.493Z,18
2023-03-07T15:35:20.653Z,16
2023-03-07T15:40:20.513Z,14
2023-03-07T15:45:17.450Z,19
2023-03-07T15:50:17.424Z,23
2023-03-07T15:55:20.507Z,13
2023-03-07T16:00:20.708Z,20
2023-03-07T16:05:20.557Z,12
2023-03-07T16:10:20.545Z,16
2023-03-07T16:15:18.573Z,16
2023-03-07T16:20:18.603Z,13
2023-03-07T16:25:15.585Z,12
2023-03-07T16:30:15.544Z,11
2023-03-07T16:35:18.708Z,19
2023-03-07T16:40:18.672Z,19
2023-03-07T16:45:18.714Z,17
2023-03-07T16:50:18.663Z,14
2023-03-07T16:55:18.760Z,14
2023-03-07T17:00:18.726Z,15
2023-03-07T17:05:18.744Z,18
2023-03-07T17:10:18.759Z,18
2023-03-07T17:15:18.735Z,22
2023-03-07T17:20:15.679Z,15
2023-03-07T17:25:18.776Z,19
2023-03-07T17:30:18.845Z,18
2023-03-07T17:35:18.818Z,14
2023-03-07T17:40:18.760Z,19
2023-03-07T17:45:18.770Z,16
2023-03-07T17:50:18.895Z,17
2023-03-07T17:55:18.864Z,20
2023-03-07T18:00:20.727Z,18
2023-03-07T18:05:18.967Z,18
2023-03-07T18:10:15.657Z,19
2023-03-07T18:15:15.969Z,23
2023-03-07T18:20:18.939Z,18
2023-03-07T18:25:18.863Z,19
2023-03-07T18:30:18.838Z,21
2023-03-07T18:35:18.943Z,21
2023-03-07T18:40:18.965Z,21
2023-03-07T18:45:18.932Z,21
2023-03-07T18:50:18.996Z,25
2023-03-07T18:55:19.048Z,19
2023-03-07T19:00:18.983Z,22
2023-03-07T19:05:15.890Z,19
2023-03-07T19:10:15.876Z,19
2023-03-07T19:15:19.006Z,16
2023-03-07T19:20:19.028Z,17
2023-03-07T19:25:18.995Z,18
2023-03-07T19:30:19.089Z,21
2023-03-07T19:35:19.124Z,23
2023-03-07T19:40:19.112Z,20
2023-03-07T19:45:19.087Z,22
2023-03-07T19:50:19.117Z,23
2023-03-07T19:55:15.999Z,24
2023-03-07T20:00:15.995Z,21
2023-03-07T20:05:19.285Z,22
2023-03-07T20:10:19.221Z,24
2023-03-07T20:15:19.142Z,20
2023-03-07T20:20:19.135Z,21
2023-03-07T20:25:19.151Z,23
2023-03-07T20:30:19.256Z,23
2023-03-07T20:35:19.170Z,25
2023-03-07T20:40:19.277Z,18
2023-03-07T20:45:19.193Z,15
2023-03-07T20:50:16.115Z,19
2023-03-07T20:55:16.258Z,20
2023-03-07T21:00:19.277Z,21
2023-03-07T21:05:19.179Z,18
2023-03-07T21:10:19.216Z,17
2023-03-07T21:15:19.328Z,14
2023-03-07T21:20:19.261Z,14
2023-03-07T21:25:19.312Z,20
2023-03-07T21:30:19.303Z,20
2023-03-07T21:35:19.325Z,11
2023-03-07T21:40:19.379Z,12
2023-03-07T21:45:16.259Z,9
2023-03-07T21:50:16.368Z,15
2023-03-07T21:55:19.335Z,15
2023-03-07T22:00:19.403Z,19
2023-03-07T22:05:19.310Z,17
2023-03-07T22:10:19.345Z,21
2023-03-07T22:15:19.303Z,13
2023-03-07T22:20:19.458Z,12
2023-03-07T22:25:20.668Z,16
2023-03-07T22:30:19.546Z,12
2023-03-07T22:35:16.309Z,13
2023-03-07T22:40:16.287Z,13
2023-03-07T22:45:16.652Z,12
2023-03-07T22:50:19.492Z,12
2023-03-07T22:55:19.411Z,10
2023-03-07T23:00:19.561Z,8
2023-03-07T23:05:19.517Z,11
2023-03-07T23:10:19.479Z,15
2023-03-07T23:15:19.504Z,16
2023-03-07T23:20:19.604Z,21
2023-03-07T23:25:19.514Z,20
2023-03-07T23:30:16.416Z,13
2023-03-07T23:35:16.559Z,14
2023-03-07T23:40:19.526Z,11
2023-03-07T23:45:22.058Z,17
2023-03-07T23:50:19.638Z,11
2023-03-07T23:55:19.643Z,12
